sensor_id;sensor_type;location;lat;lon;timestamp;pressure;altitude;pressure_sealevel;temperature
72278;BMP280;61204;49.980;8.358;2022-07-29T00:01:16;100546.97;;;22.06
72278;BMP280;61204;49.980;8.358;2022-07-29T00:03:41;100543.47;;;22.06
72278;BMP280;61204;49.980;8.358;2022-07-29T00:06:07;100536.53;;;22.07
72278;BMP280;61204;49.980;8.358;2022-07-29T00:08:37;100528.34;;;22.17
72278;BMP280;61204;49.980;8.358;2022-07-29T00:11:05;100523.25;;;22.41
72278;BMP280;61204;49.980;8.358;2022-07-29T00:13:31;100522.06;;;22.55
72278;BMP280;61204;49.980;8.358;2022-07-29T00:15:56;100517.00;;;22.45
72278;BMP280;61204;49.980;8.358;2022-07-29T00:18:24;100511.38;;;22.43
72278;BMP280;61204;49.980;8.358;2022-07-29T00:20:53;100505.78;;;22.41
72278;BMP280;61204;49.980;8.358;2022-07-29T00:23:21;100508.50;;;22.37
72278;BMP280;61204;49.980;8.358;2022-07-29T00:25:51;100495.88;;;22.34
72278;BMP280;61204;49.980;8.358;2022-07-29T00:28:17;100492.28;;;22.29
72278;BMP280;61204;49.980;8.358;2022-07-29T00:30:45;100491.56;;;22.29
72278;BMP280;61204;49.980;8.358;2022-07-29T00:33:10;100476.25;;;22.32
72278;BMP280;61204;49.980;8.358;2022-07-29T00:35:36;100477.66;;;22.31
72278;BMP280;61204;49.980;8.358;2022-07-29T00:38:15;100480.69;;;22.45
72278;BMP280;61204;49.980;8.358;2022-07-29T00:40:46;100478.47;;;22.37
72278;BMP280;61204;49.980;8.358;2022-07-29T00:43:16;100478.47;;;22.37
72278;BMP280;61204;49.980;8.358;2022-07-29T00:45:43;100475.81;;;22.45
72278;BMP280;61204;49.980;8.358;2022-07-29T00:48:09;100472.31;;;22.47
72278;BMP280;61204;49.980;8.358;2022-07-29T00:50:36;100466.75;;;22.47
72278;BMP280;61204;49.980;8.358;2022-07-29T00:53:03;100468.47;;;22.64
72278;BMP280;61204;49.980;8.358;2022-07-29T00:55:33;100466.53;;;22.75
72278;BMP280;61204;49.980;8.358;2022-07-29T00:58:02;100468.53;;;22.70
72278;BMP280;61204;49.980;8.358;2022-07-29T01:00:29;100469.28;;;22.73
72278;BMP280;61204;49.980;8.358;2022-07-29T01:02:55;100468.38;;;22.60
72278;BMP280;61204;49.980;8.358;2022-07-29T01:05:25;100471.25;;;22.66
72278;BMP280;61204;49.980;8.358;2022-07-29T01:07:54;100463.44;;;22.59
72278;BMP280;61204;49.980;8.358;2022-07-29T01:10:23;100467.66;;;22.58
72278;BMP280;61204;49.980;8.358;2022-07-29T01:12:51;100462.56;;;22.46
72278;BMP280;61204;49.980;8.358;2022-07-29T01:15:24;100461.34;;;22.59
72278;BMP280;61204;49.980;8.358;2022-07-29T01:27:51;100446.16;;;22.68
72278;BMP280;61204;49.980;8.358;2022-07-29T01:30:35;100450.84;;;22.56
72278;BMP280;61204;49.980;8.358;2022-07-29T01:33:07;100445.59;;;22.36
72278;BMP280;61204;49.980;8.358;2022-07-29T01:36:01;100430.53;;;22.13
72278;BMP280;61204;49.980;8.358;2022-07-29T01:38:42;100429.69;;;22.04
72278;BMP280;61204;49.980;8.358;2022-07-29T01:41:22;100435.41;;;22.12
72278;BMP280;61204;49.980;8.358;2022-07-29T01:43:53;100438.13;;;22.08
72278;BMP280;61204;49.980;8.358;2022-07-29T01:46:31;100444.97;;;21.99
72278;BMP280;61204;49.980;8.358;2022-07-29T01:49:08;100449.63;;;21.88
72278;BMP280;61204;49.980;8.358;2022-07-29T01:51:57;100442.53;;;21.83
72278;BMP280;61204;49.980;8.358;2022-07-29T01:54:38;100447.56;;;21.57
72278;BMP280;61204;49.980;8.358;2022-07-29T01:57:15;100451.78;;;21.26
72278;BMP280;61204;49.980;8.358;2022-07-29T01:59:46;100442.16;;;21.01
72278;BMP280;61204;49.980;8.358;2022-07-29T02:02:15;100441.78;;;20.85
72278;BMP280;61204;49.980;8.358;2022-07-29T02:04:46;100444.31;;;20.75
72278;BMP280;61204;49.980;8.358;2022-07-29T02:07:20;100447.72;;;20.71
72278;BMP280;61204;49.980;8.358;2022-07-29T02:09:51;100449.66;;;20.67
72278;BMP280;61204;49.980;8.358;2022-07-29T02:12:23;100449.75;;;20.71
72278;BMP280;61204;49.980;8.358;2022-07-29T02:14:56;100454.53;;;20.66
72278;BMP280;61204;49.980;8.358;2022-07-29T02:17:37;100453.38;;;20.47
72278;BMP280;61204;49.980;8.358;2022-07-29T02:20:11;100447.38;;;20.31
72278;BMP280;61204;49.980;8.358;2022-07-29T02:22:39;100431.69;;;20.18
72278;BMP280;61204;49.980;8.358;2022-07-29T02:25:10;100430.06;;;20.09
72278;BMP280;61204;49.980;8.358;2022-07-29T02:27:37;100435.44;;;20.03
72278;BMP280;61204;49.980;8.358;2022-07-29T02:30:07;100428.69;;;20.10
72278;BMP280;61204;49.980;8.358;2022-07-29T02:32:37;100431.09;;;20.21
72278;BMP280;61204;49.980;8.358;2022-07-29T02:35:09;100428.47;;;20.27
72278;BMP280;61204;49.980;8.358;2022-07-29T02:37:41;100430.69;;;20.31
72278;BMP280;61204;49.980;8.358;2022-07-29T02:40:31;100432.78;;;20.33
72278;BMP280;61204;49.980;8.358;2022-07-29T02:43:02;100421.81;;;20.39
72278;BMP280;61204;49.980;8.358;2022-07-29T02:45:34;100425.75;;;20.29
72278;BMP280;61204;49.980;8.358;2022-07-29T02:48:05;100425.22;;;20.35
72278;BMP280;61204;49.980;8.358;2022-07-29T02:51:12;100427.19;;;20.31
72278;BMP280;61204;49.980;8.358;2022-07-29T02:53:51;100425.53;;;20.21
72278;BMP280;61204;49.980;8.358;2022-07-29T02:56:25;100421.03;;;20.10
72278;BMP280;61204;49.980;8.358;2022-07-29T02:59:04;100416.91;;;20.11
72278;BMP280;61204;49.980;8.358;2022-07-29T03:01:42;100417.63;;;20.12
72278;BMP280;61204;49.980;8.358;2022-07-29T03:04:14;100414.94;;;20.16
72278;BMP280;61204;49.980;8.358;2022-07-29T03:06:45;100402.03;;;20.28
72278;BMP280;61204;49.980;8.358;2022-07-29T03:09:13;100404.31;;;20.34
72278;BMP280;61204;49.980;8.358;2022-07-29T03:11:40;100407.72;;;20.33
72278;BMP280;61204;49.980;8.358;2022-07-29T03:14:12;100407.63;;;20.28
72278;BMP280;61204;49.980;8.358;2022-07-29T03:16:38;100415.16;;;20.24
72278;BMP280;61204;49.980;8.358;2022-07-29T03:19:05;100414.00;;;20.33
72278;BMP280;61204;49.980;8.358;2022-07-29T03:21:33;100405.03;;;20.37
72278;BMP280;61204;49.980;8.358;2022-07-29T03:23:59;100404.81;;;20.26
72278;BMP280;61204;49.980;8.358;2022-07-29T03:26:25;100412.03;;;20.38
72278;BMP280;61204;49.980;8.358;2022-07-29T03:28:51;100407.31;;;20.44
72278;BMP280;61204;49.980;8.358;2022-07-29T03:31:16;100411.38;;;20.39
72278;BMP280;61204;49.980;8.358;2022-07-29T03:33:44;100400.19;;;20.37
72278;BMP280;61204;49.980;8.358;2022-07-29T03:36:10;100406.38;;;20.34
72278;BMP280;61204;49.980;8.358;2022-07-29T03:38:36;100409.59;;;20.24
72278;BMP280;61204;49.980;8.358;2022-07-29T03:41:07;100400.06;;;20.33
72278;BMP280;61204;49.980;8.358;2022-07-29T03:43:39;100405.03;;;20.37
72278;BMP280;61204;49.980;8.358;2022-07-29T03:46:09;100401.31;;;20.26
72278;BMP280;61204;49.980;8.358;2022-07-29T03:48:39;100407.34;;;20.18
72278;BMP280;61204;49.980;8.358;2022-07-29T03:51:11;100405.03;;;20.09
72278;BMP280;61204;49.980;8.358;2022-07-29T03:53:41;100406.38;;;20.08
72278;BMP280;61204;49.980;8.358;2022-07-29T03:56:11;100403.00;;;20.11
72278;BMP280;61204;49.980;8.358;2022-07-29T03:58:42;100398.78;;;20.10
72278;BMP280;61204;49.980;8.358;2022-07-29T04:01:10;100399.25;;;20.01
72278;BMP280;61204;49.980;8.358;2022-07-29T04:03:37;100406.06;;;19.95
72278;BMP280;61204;49.980;8.358;2022-07-29T04:06:06;100411.50;;;19.91
72278;BMP280;61204;49.980;8.358;2022-07-29T04:08:35;100409.59;;;19.98
72278;BMP280;61204;49.980;8.358;2022-07-29T04:11:04;100422.56;;;19.89
72278;BMP280;61204;49.980;8.358;2022-07-29T04:13:33;100421.16;;;19.88
72278;BMP280;61204;49.980;8.358;2022-07-29T04:15:59;100421.63;;;19.81
72278;BMP280;61204;49.980;8.358;2022-07-29T04:18:25;100426.44;;;19.78
72278;BMP280;61204;49.980;8.358;2022-07-29T04:20:50;100428.41;;;19.76
72278;BMP280;61204;49.980;8.358;2022-07-29T04:23:16;100426.44;;;19.78
72278;BMP280;61204;49.980;8.358;2022-07-29T04:25:42;100430.56;;;19.77
72278;BMP280;61204;49.980;8.358;2022-07-29T04:28:09;100434.69;;;19.76
72278;BMP280;61204;49.980;8.358;2022-07-29T04:30:37;100436.19;;;19.79
72278;BMP280;61204;49.980;8.358;2022-07-29T04:33:05;100433.84;;;19.70
72278;BMP280;61204;49.980;8.358;2022-07-29T04:35:35;100437.13;;;19.64
72278;BMP280;61204;49.980;8.358;2022-07-29T04:38:04;100437.72;;;19.60
72278;BMP280;61204;49.980;8.358;2022-07-29T04:40:33;100444.47;;;19.77
72278;BMP280;61204;49.980;8.358;2022-07-29T04:43:01;100448.72;;;19.80
72278;BMP280;61204;49.980;8.358;2022-07-29T04:45:27;100446.78;;;19.85
72278;BMP280;61204;49.980;8.358;2022-07-29T04:47:54;100454.53;;;19.88
72278;BMP280;61204;49.980;8.358;2022-07-29T04:50:20;100455.41;;;19.95
72278;BMP280;61204;49.980;8.358;2022-07-29T04:52:49;100450.69;;;20.00
72278;BMP280;61204;49.980;8.358;2022-07-29T04:55:14;100446.75;;;20.09
72278;BMP280;61204;49.980;8.358;2022-07-29T04:57:40;100458.78;;;20.15
72278;BMP280;61204;49.980;8.358;2022-07-29T05:00:06;100452.25;;;20.31
72278;BMP280;61204;49.980;8.358;2022-07-29T05:02:33;100453.47;;;20.51
72278;BMP280;61204;49.980;8.358;2022-07-29T05:05:04;100450.41;;;20.67
72278;BMP280;61204;49.980;8.358;2022-07-29T05:07:32;100447.25;;;20.81
72278;BMP280;61204;49.980;8.358;2022-07-29T05:09:58;100451.78;;;20.96
72278;BMP280;61204;49.980;8.358;2022-07-29T05:12:26;100457.91;;;21.18
72278;BMP280;61204;49.980;8.358;2022-07-29T05:14:54;100452.81;;;21.41
72278;BMP280;61204;49.980;8.358;2022-07-29T05:17:20;100465.75;;;21.58
72278;BMP280;61204;49.980;8.358;2022-07-29T05:19:46;100462.41;;;21.66
72278;BMP280;61204;49.980;8.358;2022-07-29T05:22:12;100456.50;;;21.83
72278;BMP280;61204;49.980;8.358;2022-07-29T05:24:37;100457.91;;;21.84
72278;BMP280;61204;49.980;8.358;2022-07-29T05:27:03;100454.69;;;21.98
72278;BMP280;61204;49.980;8.358;2022-07-29T05:29:29;100453.00;;;22.19
72278;BMP280;61204;49.980;8.358;2022-07-29T05:31:57;100455.81;;;22.19
72278;BMP280;61204;49.980;8.358;2022-07-29T05:34:22;100454.38;;;22.18
72278;BMP280;61204;49.980;8.358;2022-07-29T05:36:51;100456.69;;;22.30
72278;BMP280;61204;49.980;8.358;2022-07-29T05:39:19;100454.03;;;22.40
72278;BMP280;61204;49.980;8.358;2022-07-29T05:41:45;100449.72;;;22.31
72278;BMP280;61204;49.980;8.358;2022-07-29T05:44:11;100454.31;;;22.54
72278;BMP280;61204;49.980;8.358;2022-07-29T05:46:38;100460.50;;;22.93
72278;BMP280;61204;49.980;8.358;2022-07-29T05:49:04;100462.84;;;23.08
72278;BMP280;61204;49.980;8.358;2022-07-29T05:51:34;100466.19;;;23.47
72278;BMP280;61204;49.980;8.358;2022-07-29T05:54:02;100466.66;;;23.31
72278;BMP280;61204;49.980;8.358;2022-07-29T05:56:28;100455.81;;;23.56
72278;BMP280;61204;49.980;8.358;2022-07-29T05:59:01;100452.16;;;23.45
72278;BMP280;61204;49.980;8.358;2022-07-29T06:01:26;100463.56;;;23.63
72278;BMP280;61204;49.980;8.358;2022-07-29T06:03:56;100460.25;;;23.79
72278;BMP280;61204;49.980;8.358;2022-07-29T06:06:27;100469.69;;;24.08
72278;BMP280;61204;49.980;8.358;2022-07-29T06:08:55;100470.97;;;24.73
72278;BMP280;61204;49.980;8.358;2022-07-29T06:11:22;100471.75;;;24.86
72278;BMP280;61204;49.980;8.358;2022-07-29T06:13:48;100474.69;;;25.04
72278;BMP280;61204;49.980;8.358;2022-07-29T06:16:14;100467.84;;;25.44
72278;BMP280;61204;49.980;8.358;2022-07-29T06:18:42;100471.53;;;26.05
72278;BMP280;61204;49.980;8.358;2022-07-29T06:21:08;100486.28;;;25.90
72278;BMP280;61204;49.980;8.358;2022-07-29T06:23:36;100488.44;;;26.17
72278;BMP280;61204;49.980;8.358;2022-07-29T06:26:06;100482.09;;;26.66
72278;BMP280;61204;49.980;8.358;2022-07-29T06:28:32;100484.94;;;26.49
72278;BMP280;61204;49.980;8.358;2022-07-29T06:30:58;100487.75;;;26.29
72278;BMP280;61204;49.980;8.358;2022-07-29T06:33:24;100484.84;;;25.87
72278;BMP280;61204;49.980;8.358;2022-07-29T06:35:50;100484.88;;;25.89
72278;BMP280;61204;49.980;8.358;2022-07-29T06:38:18;100481.25;;;25.56
72278;BMP280;61204;49.980;8.358;2022-07-29T06:40:44;100485.41;;;25.38
72278;BMP280;61204;49.980;8.358;2022-07-29T06:46:02;100474.38;;;26.70
72278;BMP280;61204;49.980;8.358;2022-07-29T06:48:31;100469.44;;;26.69
72278;BMP280;61204;49.980;8.358;2022-07-29T06:50:58;100468.00;;;26.84
72278;BMP280;61204;49.980;8.358;2022-07-29T06:53:26;100475.72;;;27.02
72278;BMP280;61204;49.980;8.358;2022-07-29T06:55:54;100474.75;;;27.60
72278;BMP280;61204;49.980;8.358;2022-07-29T06:58:20;100471.94;;;27.64
72278;BMP280;61204;49.980;8.358;2022-07-29T07:00:48;100486.03;;;27.64
72278;BMP280;61204;49.980;8.358;2022-07-29T07:03:15;100476.84;;;27.64
72278;BMP280;61204;49.980;8.358;2022-07-29T07:05:42;100487.00;;;28.26
72278;BMP280;61204;49.980;8.358;2022-07-29T07:08:09;100495.41;;;29.04
72278;BMP280;61204;49.980;8.358;2022-07-29T07:10:36;100490.94;;;29.21
72278;BMP280;61204;49.980;8.358;2022-07-29T07:13:02;100497.19;;;29.32
72278;BMP280;61204;49.980;8.358;2022-07-29T07:15:30;100503.53;;;28.69
72278;BMP280;61204;49.980;8.358;2022-07-29T07:17:56;100498.00;;;29.75
72278;BMP280;61204;49.980;8.358;2022-07-29T07:20:23;100503.75;;;30.14
72278;BMP280;61204;49.980;8.358;2022-07-29T07:22:49;100506.94;;;29.92
72278;BMP280;61204;49.980;8.358;2022-07-29T07:25:15;100500.25;;;30.53
72278;BMP280;61204;49.980;8.358;2022-07-29T07:27:42;100508.75;;;30.53
72278;BMP280;61204;49.980;8.358;2022-07-29T07:30:10;100503.72;;;31.60
72278;BMP280;61204;49.980;8.358;2022-07-29T07:32:38;100511.41;;;30.20
72278;BMP280;61204;49.980;8.358;2022-07-29T07:35:05;100507.84;;;29.78
72278;BMP280;61204;49.980;8.358;2022-07-29T07:37:34;100510.56;;;31.05
72278;BMP280;61204;49.980;8.358;2022-07-29T07:40:04;100507.03;;;31.69
72278;BMP280;61204;49.980;8.358;2022-07-29T07:42:30;100505.41;;;32.07
72278;BMP280;61204;49.980;8.358;2022-07-29T07:44:56;100503.09;;;30.90
72278;BMP280;61204;49.980;8.358;2022-07-29T07:47:30;100509.59;;;31.81
72278;BMP280;61204;49.980;8.358;2022-07-29T07:49:55;100507.25;;;32.18
72278;BMP280;61204;49.980;8.358;2022-07-29T07:52:21;100506.06;;;32.63
72278;BMP280;61204;49.980;8.358;2022-07-29T07:54:48;100506.56;;;33.42
72278;BMP280;61204;49.980;8.358;2022-07-29T07:57:14;100505.84;;;33.64
72278;BMP280;61204;49.980;8.358;2022-07-29T07:59:42;100505.50;;;33.31
72278;BMP280;61204;49.980;8.358;2022-07-29T08:02:11;100495.13;;;32.98
72278;BMP280;61204;49.980;8.358;2022-07-29T08:04:37;100504.44;;;32.70
72278;BMP280;61204;49.980;8.358;2022-07-29T08:07:05;100494.69;;;34.02
72278;BMP280;61204;49.980;8.358;2022-07-29T08:09:34;100501.88;;;34.20
72278;BMP280;61204;49.980;8.358;2022-07-29T08:12:01;100507.56;;;35.34
72278;BMP280;61204;49.980;8.358;2022-07-29T08:14:30;100508.88;;;35.18
72278;BMP280;61204;49.980;8.358;2022-07-29T08:17:00;100504.44;;;34.28
72278;BMP280;61204;49.980;8.358;2022-07-29T08:19:29;100496.69;;;35.39
72278;BMP280;61204;49.980;8.358;2022-07-29T08:21:55;100504.25;;;35.80
72278;BMP280;61204;49.980;8.358;2022-07-29T08:24:21;100511.31;;;36.62
72278;BMP280;61204;49.980;8.358;2022-07-29T08:27:06;100504.59;;;35.88
72278;BMP280;61204;49.980;8.358;2022-07-29T08:29:32;100508.91;;;36.52
72278;BMP280;61204;49.980;8.358;2022-07-29T08:31:58;100508.34;;;36.49
72278;BMP280;61204;49.980;8.358;2022-07-29T08:34:26;100504.81;;;36.32
72278;BMP280;61204;49.980;8.358;2022-07-29T08:36:51;100505.47;;;37.40
72278;BMP280;61204;49.980;8.358;2022-07-29T08:39:17;100506.66;;;37.01
72278;BMP280;61204;49.980;8.358;2022-07-29T08:41:42;100513.06;;;36.55
72278;BMP280;61204;49.980;8.358;2022-07-29T08:44:08;100517.84;;;35.96
72278;BMP280;61204;49.980;8.358;2022-07-29T08:46:37;100504.44;;;35.76
72278;BMP280;61204;49.980;8.358;2022-07-29T08:49:07;100517.09;;;36.29
72278;BMP280;61204;49.980;8.358;2022-07-29T08:51:35;100511.78;;;36.52
72278;BMP280;61204;49.980;8.358;2022-07-29T08:54:04;100516.41;;;36.28
72278;BMP280;61204;49.980;8.358;2022-07-29T08:56:34;100514.03;;;36.49
72278;BMP280;61204;49.980;8.358;2022-07-29T08:59:05;100517.22;;;38.70
72278;BMP280;61204;49.980;8.358;2022-07-29T09:01:33;100516.53;;;39.92
72278;BMP280;61204;49.980;8.358;2022-07-29T09:04:09;100518.00;;;39.19
72278;BMP280;61204;49.980;8.358;2022-07-29T09:06:41;100517.69;;;38.22
72278;BMP280;61204;49.980;8.358;2022-07-29T09:09:10;100511.09;;;38.38
72278;BMP280;61204;49.980;8.358;2022-07-29T09:11:36;100511.97;;;38.35
72278;BMP280;61204;49.980;8.358;2022-07-29T09:14:02;100510.41;;;40.21
72278;BMP280;61204;49.980;8.358;2022-07-29T09:16:44;100501.28;;;40.63
72278;BMP280;61204;49.980;8.358;2022-07-29T09:19:23;100504.00;;;38.50
72278;BMP280;61204;49.980;8.358;2022-07-29T09:21:57;100508.50;;;37.50
72278;BMP280;61204;49.980;8.358;2022-07-29T09:27:11;100501.41;;;40.51
72278;BMP280;61204;49.980;8.358;2022-07-29T09:32:33;100498.84;;;40.34
72278;BMP280;61204;49.980;8.358;2022-07-29T09:35:21;100494.16;;;40.62
72278;BMP280;61204;49.980;8.358;2022-07-29T09:37:52;100500.94;;;40.91
72278;BMP280;61204;49.980;8.358;2022-07-29T09:40:25;100497.16;;;40.50
72278;BMP280;61204;49.980;8.358;2022-07-29T09:42:53;100494.22;;;39.46
72278;BMP280;61204;49.980;8.358;2022-07-29T09:45:30;100489.66;;;39.98
72278;BMP280;61204;49.980;8.358;2022-07-29T09:48:21;100488.47;;;40.05
72278;BMP280;61204;49.980;8.358;2022-07-29T09:50:49;100483.03;;;39.17
72278;BMP280;61204;49.980;8.358;2022-07-29T09:53:32;100487.75;;;38.06
72278;BMP280;61204;49.980;8.358;2022-07-29T09:56:01;100494.56;;;38.26
72278;BMP280;61204;49.980;8.358;2022-07-29T09:58:27;100493.38;;;38.74
72278;BMP280;61204;49.980;8.358;2022-07-29T10:00:56;100491.50;;;40.92
72278;BMP280;61204;49.980;8.358;2022-07-29T10:03:22;100481.28;;;40.51
72278;BMP280;61204;49.980;8.358;2022-07-29T10:06:08;100481.22;;;40.40
72278;BMP280;61204;49.980;8.358;2022-07-29T10:08:36;100475.28;;;40.55
72278;BMP280;61204;49.980;8.358;2022-07-29T10:11:17;100478.75;;;41.64
72278;BMP280;61204;49.980;8.358;2022-07-29T10:13:45;100478.47;;;41.46
72278;BMP280;61204;49.980;8.358;2022-07-29T10:16:15;100477.00;;;41.05
72278;BMP280;61204;49.980;8.358;2022-07-29T10:18:45;100486.06;;;39.74
72278;BMP280;61204;49.980;8.358;2022-07-29T10:21:13;100484.22;;;39.58
72278;BMP280;61204;49.980;8.358;2022-07-29T10:23:42;100490.00;;;40.49
72278;BMP280;61204;49.980;8.358;2022-07-29T10:26:11;100486.78;;;42.23
72278;BMP280;61204;49.980;8.358;2022-07-29T10:28:36;100477.75;;;42.86
72278;BMP280;61204;49.980;8.358;2022-07-29T10:31:05;100475.91;;;44.37
72278;BMP280;61204;49.980;8.358;2022-07-29T10:33:47;100488.50;;;41.37
72278;BMP280;61204;49.980;8.358;2022-07-29T10:36:41;100480.25;;;41.52
72278;BMP280;61204;49.980;8.358;2022-07-29T10:42:55;100469.50;;;42.23
72278;BMP280;61204;49.980;8.358;2022-07-29T10:45:34;100472.72;;;41.97
72278;BMP280;61204;49.980;8.358;2022-07-29T10:48:04;100475.28;;;42.42
72278;BMP280;61204;49.980;8.358;2022-07-29T10:50:52;100464.00;;;43.15
72278;BMP280;61204;49.980;8.358;2022-07-29T10:53:45;100469.28;;;43.40
72278;BMP280;61204;49.980;8.358;2022-07-29T10:56:30;100461.09;;;43.34
72278;BMP280;61204;49.980;8.358;2022-07-29T11:01:45;100448.16;;;44.14
72278;BMP280;61204;49.980;8.358;2022-07-29T11:04:13;100452.44;;;44.41
72278;BMP280;61204;49.980;8.358;2022-07-29T11:09:29;100449.59;;;41.16
72278;BMP280;61204;49.980;8.358;2022-07-29T11:11:58;100445.50;;;43.39
72278;BMP280;61204;49.980;8.358;2022-07-29T11:17:22;100437.94;;;41.91
72278;BMP280;61204;49.980;8.358;2022-07-29T11:19:50;100442.75;;;41.43
72278;BMP280;61204;49.980;8.358;2022-07-29T11:22:33;100444.63;;;39.60
72278;BMP280;61204;49.980;8.358;2022-07-29T11:25:16;100444.09;;;40.25
72278;BMP280;61204;49.980;8.358;2022-07-29T11:27:44;100443.44;;;41.01
72278;BMP280;61204;49.980;8.358;2022-07-29T11:30:10;100435.06;;;41.40
72278;BMP280;61204;49.980;8.358;2022-07-29T11:32:42;100432.56;;;41.95
72278;BMP280;61204;49.980;8.358;2022-07-29T11:35:23;100441.44;;;41.72
72278;BMP280;61204;49.980;8.358;2022-07-29T11:38:24;100439.34;;;40.98
72278;BMP280;61204;49.980;8.358;2022-07-29T11:41:30;100437.53;;;41.97
72278;BMP280;61204;49.980;8.358;2022-07-29T11:44:01;100440.09;;;40.44
72278;BMP280;61204;49.980;8.358;2022-07-29T11:49:20;100441.59;;;38.78
72278;BMP280;61204;49.980;8.358;2022-07-29T11:51:56;100441.00;;;39.36
72278;BMP280;61204;49.980;8.358;2022-07-29T11:54:30;100431.31;;;39.55
72278;BMP280;61204;49.980;8.358;2022-07-29T11:56:59;100426.75;;;39.94
72278;BMP280;61204;49.980;8.358;2022-07-29T11:59:26;100420.06;;;40.20
72278;BMP280;61204;49.980;8.358;2022-07-29T12:01:56;100427.69;;;41.32
72278;BMP280;61204;49.980;8.358;2022-07-29T12:04:25;100415.97;;;42.83
72278;BMP280;61204;49.980;8.358;2022-07-29T12:06:57;100416.06;;;43.56
72278;BMP280;61204;49.980;8.358;2022-07-29T12:09:23;100413.16;;;44.10
72278;BMP280;61204;49.980;8.358;2022-07-29T12:11:56;100416.13;;;41.94
72278;BMP280;61204;49.980;8.358;2022-07-29T12:14:31;100410.19;;;39.60
72278;BMP280;61204;49.980;8.358;2022-07-29T12:16:59;100400.47;;;39.89
72278;BMP280;61204;49.980;8.358;2022-07-29T12:19:26;100409.06;;;40.57
72278;BMP280;61204;49.980;8.358;2022-07-29T12:21:54;100410.63;;;41.60
72278;BMP280;61204;49.980;8.358;2022-07-29T12:24:24;100401.19;;;41.91
72278;BMP280;61204;49.980;8.358;2022-07-29T12:26:51;100396.66;;;41.54
72278;BMP280;61204;49.980;8.358;2022-07-29T12:29:21;100394.81;;;40.44
72278;BMP280;61204;49.980;8.358;2022-07-29T12:31:52;100384.03;;;40.11
72278;BMP280;61204;49.980;8.358;2022-07-29T12:34:20;100389.00;;;38.58
72278;BMP280;61204;49.980;8.358;2022-07-29T12:36:53;100392.34;;;41.12
72278;BMP280;61204;49.980;8.358;2022-07-29T12:39:26;100378.31;;;41.89
72278;BMP280;61204;49.980;8.358;2022-07-29T12:41:55;100375.38;;;42.77
72278;BMP280;61204;49.980;8.358;2022-07-29T12:44:21;100377.16;;;42.44
72278;BMP280;61204;49.980;8.358;2022-07-29T12:47:01;100378.75;;;43.71
72278;BMP280;61204;49.980;8.358;2022-07-29T12:49:30;100371.19;;;44.02
72278;BMP280;61204;49.980;8.358;2022-07-29T12:51:58;100368.53;;;45.01
72278;BMP280;61204;49.980;8.358;2022-07-29T12:54:23;100379.19;;;44.36
72278;BMP280;61204;49.980;8.358;2022-07-29T12:56:58;100377.28;;;42.03
72278;BMP280;61204;49.980;8.358;2022-07-29T12:59:24;100375.75;;;41.45
72278;BMP280;61204;49.980;8.358;2022-07-29T13:01:52;100369.41;;;42.13
72278;BMP280;61204;49.980;8.358;2022-07-29T13:04:31;100367.75;;;43.01
72278;BMP280;61204;49.980;8.358;2022-07-29T13:07:05;100362.28;;;43.78
72278;BMP280;61204;49.980;8.358;2022-07-29T13:09:44;100369.84;;;42.83
72278;BMP280;61204;49.980;8.358;2022-07-29T13:12:12;100381.31;;;41.87
72278;BMP280;61204;49.980;8.358;2022-07-29T13:14:47;100374.44;;;42.61
72278;BMP280;61204;49.980;8.358;2022-07-29T13:17:19;100370.31;;;41.71
72278;BMP280;61204;49.980;8.358;2022-07-29T13:20:07;100378.97;;;41.60
72278;BMP280;61204;49.980;8.358;2022-07-29T13:22:47;100378.38;;;41.28
72278;BMP280;61204;49.980;8.358;2022-07-29T13:25:14;100367.22;;;41.53
72278;BMP280;61204;49.980;8.358;2022-07-29T13:28:13;100360.53;;;40.19
72278;BMP280;61204;49.980;8.358;2022-07-29T13:30:39;100374.81;;;39.64
72278;BMP280;61204;49.980;8.358;2022-07-29T13:33:16;100368.41;;;39.04
72278;BMP280;61204;49.980;8.358;2022-07-29T13:35:46;100363.66;;;38.37
72278;BMP280;61204;49.980;8.358;2022-07-29T13:38:12;100371.28;;;37.08
72278;BMP280;61204;49.980;8.358;2022-07-29T13:40:38;100365.16;;;36.43
72278;BMP280;61204;49.980;8.358;2022-07-29T13:43:09;100376.16;;;36.22
72278;BMP280;61204;49.980;8.358;2022-07-29T13:45:36;100379.41;;;36.43
72278;BMP280;61204;49.980;8.358;2022-07-29T13:48:07;100377.22;;;36.75
72278;BMP280;61204;49.980;8.358;2022-07-29T13:50:32;100382.31;;;36.72
72278;BMP280;61204;49.980;8.358;2022-07-29T13:53:05;100381.13;;;36.53
72278;BMP280;61204;49.980;8.358;2022-07-29T13:55:31;100371.25;;;36.35
72278;BMP280;61204;49.980;8.358;2022-07-29T13:57:59;100388.28;;;35.74
72278;BMP280;61204;49.980;8.358;2022-07-29T14:00:25;100388.69;;;35.64
72278;BMP280;61204;49.980;8.358;2022-07-29T14:02:53;100385.16;;;35.30
72278;BMP280;61204;49.980;8.358;2022-07-29T14:05:22;100385.78;;;35.66
72278;BMP280;61204;49.980;8.358;2022-07-29T14:07:49;100391.81;;;35.24
72278;BMP280;61204;49.980;8.358;2022-07-29T14:10:15;100392.84;;;35.34
72278;BMP280;61204;49.980;8.358;2022-07-29T14:12:43;100390.06;;;35.15
72278;BMP280;61204;49.980;8.358;2022-07-29T14:15:08;100379.78;;;35.05
72278;BMP280;61204;49.980;8.358;2022-07-29T14:17:34;100385.03;;;34.05
72278;BMP280;61204;49.980;8.358;2022-07-29T14:20:00;100392.16;;;33.64
72278;BMP280;61204;49.980;8.358;2022-07-29T14:22:28;100392.44;;;33.56
72278;BMP280;61204;49.980;8.358;2022-07-29T14:24:55;100394.84;;;33.27
72278;BMP280;61204;49.980;8.358;2022-07-29T14:27:20;100385.34;;;33.34
72278;BMP280;61204;49.980;8.358;2022-07-29T14:29:48;100392.38;;;32.69
72278;BMP280;61204;49.980;8.358;2022-07-29T14:32:21;100394.56;;;32.67
72278;BMP280;61204;49.980;8.358;2022-07-29T14:34:46;100395.75;;;32.51
72278;BMP280;61204;49.980;8.358;2022-07-29T14:37:14;100392.47;;;32.65
72278;BMP280;61204;49.980;8.358;2022-07-29T14:39:40;100394.97;;;32.28
72278;BMP280;61204;49.980;8.358;2022-07-29T14:42:09;100392.25;;;32.48
72278;BMP280;61204;49.980;8.358;2022-07-29T14:44:36;100407.66;;;32.55
72278;BMP280;61204;49.980;8.358;2022-07-29T14:47:03;100389.72;;;32.11